sensor_id;sensor_type;location;lat;lon;timestamp;P1;durP1;ratioP1;P2;durP2;ratioP2
32445;SDS011;18899;50.748;7.102;2023-04-01T00:00:51;2.28;;;0.80;;
32445;SDS011;18899;50.748;7.102;2023-04-01T00:03:17;1.42;;;0.55;;
32445;SDS011;18899;50.748;7.102;2023-04-01T00:05:44;1.02;;;0.60;;
32445;SDS011;18899;50.748;7.102;2023-04-01T00:08:10;1.33;;;0.60;;
32445;SDS011;18899;50.748;7.102;2023-04-01T00:10:36;1.55;;;0.60;;
32445;SDS011;18899;50.748;7.102;2023-04-01T00:13:01;2.38;;;0.65;;
32445;SDS011;18899;50.748;7.102;2023-04-01T00:15:27;2.90;;;0.60;;
32445;SDS011;18899;50.748;7.102;2023-04-01T00:17:52;1.48;;;0.63;;
32445;SDS011;18899;50.748;7.102;2023-04-01T00:20:19;2.08;;;0.73;;
32445;SDS011;18899;50.748;7.102;2023-04-01T00:22:45;2.20;;;0.52;;
32445;SDS011;18899;50.748;7.102;2023-04-01T00:25:10;2.65;;;0.70;;
32445;SDS011;18899;50.748;7.102;2023-04-01T00:27:36;1.33;;;0.55;;
32445;SDS011;18899;50.748;7.102;2023-04-01T00:30:02;1.15;;;0.50;;
32445;SDS011;18899;50.748;7.102;2023-04-01T00:32:28;3.60;;;0.70;;
32445;SDS011;18899;50.748;7.102;2023-04-01T00:34:55;2.97;;;0.50;;
32445;SDS011;18899;50.748;7.102;2023-04-01T00:37:20;1.85;;;0.63;;
32445;SDS011;18899;50.748;7.102;2023-04-01T00:39:46;2.38;;;0.60;;
32445;SDS011;18899;50.748;7.102;2023-04-01T00:42:12;2.05;;;0.55;;
32445;SDS011;18899;50.748;7.102;2023-04-01T00:44:38;3.30;;;0.77;;
32445;SDS011;18899;50.748;7.102;2023-04-01T00:47:05;2.42;;;0.80;;
32445;SDS011;18899;50.748;7.102;2023-04-01T00:49:35;2.33;;;0.68;;
32445;SDS011;18899;50.748;7.102;2023-04-01T00:52:04;0.75;;;0.40;;
32445;SDS011;18899;50.748;7.102;2023-04-01T00:54:32;4.15;;;0.60;;
32445;SDS011;18899;50.748;7.102;2023-04-01T00:57:08;4.20;;;0.90;;
32445;SDS011;18899;50.748;7.102;2023-04-01T00:59:39;2.92;;;0.50;;
32445;SDS011;18899;50.748;7.102;2023-04-01T01:02:08;1.83;;;0.50;;
32445;SDS011;18899;50.748;7.102;2023-04-01T01:04:36;1.75;;;0.60;;
32445;SDS011;18899;50.748;7.102;2023-04-01T01:07:12;1.67;;;0.40;;
32445;SDS011;18899;50.748;7.102;2023-04-01T01:15:12;1.08;;;0.40;;
32445;SDS011;18899;50.748;7.102;2023-04-01T01:29:01;1.80;;;0.52;;
32445;SDS011;18899;50.748;7.102;2023-04-01T01:37:25;2.33;;;0.50;;
32445;SDS011;18899;50.748;7.102;2023-04-01T01:39:56;0.65;;;0.30;;
32445;SDS011;18899;50.748;7.102;2023-04-01T01:42:26;2.90;;;0.50;;
32445;SDS011;18899;50.748;7.102;2023-04-01T01:44:53;2.10;;;0.65;;
32445;SDS011;18899;50.748;7.102;2023-04-01T01:47:21;2.28;;;0.50;;
32445;SDS011;18899;50.748;7.102;2023-04-01T01:49:48;3.58;;;0.60;;
32445;SDS011;18899;50.748;7.102;2023-04-01T01:52:16;2.35;;;0.60;;
32445;SDS011;18899;50.748;7.102;2023-04-01T01:54:51;2.45;;;0.40;;
32445;SDS011;18899;50.748;7.102;2023-04-01T01:57:52;0.43;;;0.32;;
32445;SDS011;18899;50.748;7.102;2023-04-01T02:00:10;0.93;;;0.45;;
32445;SDS011;18899;50.748;7.102;2023-04-01T02:02:40;2.20;;;0.40;;
32445;SDS011;18899;50.748;7.102;2023-04-01T02:05:09;1.00;;;0.50;;
32445;SDS011;18899;50.748;7.102;2023-04-01T02:07:40;1.65;;;0.50;;
32445;SDS011;18899;50.748;7.102;2023-04-01T02:10:12;1.08;;;0.60;;
32445;SDS011;18899;50.748;7.102;2023-04-01T02:12:37;1.90;;;0.50;;
32445;SDS011;18899;50.748;7.102;2023-04-01T02:15:05;3.30;;;0.50;;
32445;SDS011;18899;50.748;7.102;2023-04-01T02:17:34;3.83;;;0.90;;
32445;SDS011;18899;50.748;7.102;2023-04-01T02:20:13;1.38;;;0.50;;
32445;SDS011;18899;50.748;7.102;2023-04-01T02:22:43;1.85;;;0.50;;
32445;SDS011;18899;50.748;7.102;2023-04-01T02:25:20;0.70;;;0.40;;
32445;SDS011;18899;50.748;7.102;2023-04-01T02:30:15;3.60;;;0.50;;
32445;SDS011;18899;50.748;7.102;2023-04-01T02:32:42;2.92;;;0.32;;
32445;SDS011;18899;50.748;7.102;2023-04-01T02:35:09;3.17;;;0.60;;
32445;SDS011;18899;50.748;7.102;2023-04-01T02:37:38;1.30;;;0.63;;
32445;SDS011;18899;50.748;7.102;2023-04-01T02:40:07;0.70;;;0.40;;
32445;SDS011;18899;50.748;7.102;2023-04-01T02:42:34;0.77;;;0.55;;
32445;SDS011;18899;50.748;7.102;2023-04-01T02:44:59;1.52;;;0.50;;
32445;SDS011;18899;50.748;7.102;2023-04-01T02:47:25;0.52;;;0.30;;
32445;SDS011;18899;50.748;7.102;2023-04-01T02:49:50;1.23;;;0.60;;
32445;SDS011;18899;50.748;7.102;2023-04-01T02:52:22;1.52;;;0.50;;
32445;SDS011;18899;50.748;7.102;2023-04-01T02:54:48;4.43;;;0.63;;
32445;SDS011;18899;50.748;7.102;2023-04-01T02:57:14;2.15;;;0.50;;
32445;SDS011;18899;50.748;7.102;2023-04-01T02:59:40;1.05;;;0.40;;
32445;SDS011;18899;50.748;7.102;2023-04-01T03:02:05;1.27;;;0.50;;
32445;SDS011;18899;50.748;7.102;2023-04-01T03:04:31;1.27;;;0.47;;
32445;SDS011;18899;50.748;7.102;2023-04-01T03:06:57;1.73;;;0.65;;
32445;SDS011;18899;50.748;7.102;2023-04-01T03:09:22;3.17;;;0.50;;
32445;SDS011;18899;50.748;7.102;2023-04-01T03:11:48;1.77;;;0.40;;
32445;SDS011;18899;50.748;7.102;2023-04-01T03:14:13;0.85;;;0.50;;
32445;SDS011;18899;50.748;7.102;2023-04-01T03:16:39;1.17;;;0.30;;
32445;SDS011;18899;50.748;7.102;2023-04-01T03:19:05;2.45;;;0.60;;
32445;SDS011;18899;50.748;7.102;2023-04-01T03:21:30;1.30;;;0.60;;
32445;SDS011;18899;50.748;7.102;2023-04-01T03:23:56;2.50;;;0.40;;
32445;SDS011;18899;50.748;7.102;2023-04-01T03:26:21;1.70;;;0.40;;
32445;SDS011;18899;50.748;7.102;2023-04-01T03:28:47;1.48;;;0.40;;
32445;SDS011;18899;50.748;7.102;2023-04-01T03:31:13;1.58;;;0.30;;
32445;SDS011;18899;50.748;7.102;2023-04-01T03:33:41;0.30;;;0.30;;
32445;SDS011;18899;50.748;7.102;2023-04-01T03:36:07;1.63;;;0.30;;
32445;SDS011;18899;50.748;7.102;2023-04-01T03:38:33;0.90;;;0.40;;
32445;SDS011;18899;50.748;7.102;2023-04-01T03:40:59;0.40;;;0.30;;
32445;SDS011;18899;50.748;7.102;2023-04-01T03:43:25;1.75;;;0.40;;
32445;SDS011;18899;50.748;7.102;2023-04-01T03:45:51;0.75;;;0.47;;
32445;SDS011;18899;50.748;7.102;2023-04-01T03:48:17;0.40;;;0.30;;
32445;SDS011;18899;50.748;7.102;2023-04-01T03:50:43;2.28;;;0.40;;
32445;SDS011;18899;50.748;7.102;2023-04-01T03:53:09;0.50;;;0.40;;
32445;SDS011;18899;50.748;7.102;2023-04-01T03:55:35;2.22;;;0.40;;
32445;SDS011;18899;50.748;7.102;2023-04-01T03:58:02;2.60;;;0.30;;
32445;SDS011;18899;50.748;7.102;2023-04-01T04:00:28;1.25;;;0.40;;
32445;SDS011;18899;50.748;7.102;2023-04-01T04:02:55;3.10;;;0.50;;
32445;SDS011;18899;50.748;7.102;2023-04-01T04:05:21;0.85;;;0.52;;
32445;SDS011;18899;50.748;7.102;2023-04-01T04:07:47;1.20;;;0.73;;
32445;SDS011;18899;50.748;7.102;2023-04-01T04:10:13;0.95;;;0.50;;
32445;SDS011;18899;50.748;7.102;2023-04-01T04:12:39;1.58;;;0.77;;
32445;SDS011;18899;50.748;7.102;2023-04-01T04:15:05;1.20;;;0.55;;
32445;SDS011;18899;50.748;7.102;2023-04-01T04:17:31;1.45;;;0.50;;
32445;SDS011;18899;50.748;7.102;2023-04-01T04:19:57;2.15;;;0.50;;
32445;SDS011;18899;50.748;7.102;2023-04-01T04:22:22;4.95;;;0.73;;
32445;SDS011;18899;50.748;7.102;2023-04-01T04:24:48;1.77;;;0.45;;
32445;SDS011;18899;50.748;7.102;2023-04-01T04:27:13;1.10;;;0.45;;
32445;SDS011;18899;50.748;7.102;2023-04-01T04:29:39;0.43;;;0.30;;
32445;SDS011;18899;50.748;7.102;2023-04-01T04:32:05;1.38;;;0.50;;
32445;SDS011;18899;50.748;7.102;2023-04-01T04:34:30;1.00;;;0.40;;
32445;SDS011;18899;50.748;7.102;2023-04-01T04:36:56;3.00;;;0.50;;
32445;SDS011;18899;50.748;7.102;2023-04-01T04:39:21;1.50;;;0.60;;
32445;SDS011;18899;50.748;7.102;2023-04-01T04:41:47;2.15;;;0.60;;
32445;SDS011;18899;50.748;7.102;2023-04-01T04:44:13;1.77;;;0.65;;
32445;SDS011;18899;50.748;7.102;2023-04-01T04:46:38;1.83;;;0.70;;
32445;SDS011;18899;50.748;7.102;2023-04-01T04:49:04;1.10;;;0.43;;
32445;SDS011;18899;50.748;7.102;2023-04-01T04:51:30;0.60;;;0.40;;
32445;SDS011;18899;50.748;7.102;2023-04-01T04:53:58;1.35;;;0.43;;
32445;SDS011;18899;50.748;7.102;2023-04-01T04:56:25;0.80;;;0.30;;
32445;SDS011;18899;50.748;7.102;2023-04-01T04:58:51;0.52;;;0.30;;
32445;SDS011;18899;50.748;7.102;2023-04-01T05:01:17;0.43;;;0.40;;
32445;SDS011;18899;50.748;7.102;2023-04-01T05:03:43;1.27;;;0.30;;
32445;SDS011;18899;50.748;7.102;2023-04-01T05:06:10;0.52;;;0.30;;
32445;SDS011;18899;50.748;7.102;2023-04-01T05:08:37;0.30;;;0.28;;
32445;SDS011;18899;50.748;7.102;2023-04-01T05:11:06;1.25;;;0.40;;
32445;SDS011;18899;50.748;7.102;2023-04-01T05:13:34;0.80;;;0.50;;
32445;SDS011;18899;50.748;7.102;2023-04-01T05:16:01;0.50;;;0.35;;
32445;SDS011;18899;50.748;7.102;2023-04-01T05:18:26;1.90;;;0.40;;
32445;SDS011;18899;50.748;7.102;2023-04-01T05:20:53;2.58;;;0.82;;
32445;SDS011;18899;50.748;7.102;2023-04-01T05:23:20;0.45;;;0.40;;
32445;SDS011;18899;50.748;7.102;2023-04-01T05:25:47;1.05;;;0.40;;
32445;SDS011;18899;50.748;7.102;2023-04-01T05:28:13;1.05;;;0.30;;
32445;SDS011;18899;50.748;7.102;2023-04-01T05:30:40;0.90;;;0.40;;
32445;SDS011;18899;50.748;7.102;2023-04-01T05:33:06;1.00;;;0.50;;
32445;SDS011;18899;50.748;7.102;2023-04-01T05:35:32;0.35;;;0.30;;
32445;SDS011;18899;50.748;7.102;2023-04-01T05:37:58;0.95;;;0.30;;
32445;SDS011;18899;50.748;7.102;2023-04-01T05:40:23;0.75;;;0.40;;
32445;SDS011;18899;50.748;7.102;2023-04-01T05:42:49;1.02;;;0.60;;
32445;SDS011;18899;50.748;7.102;2023-04-01T05:45:14;1.77;;;0.90;;
32445;SDS011;18899;50.748;7.102;2023-04-01T05:47:40;1.20;;;0.50;;
32445;SDS011;18899;50.748;7.102;2023-04-01T05:50:07;3.20;;;0.80;;
32445;SDS011;18899;50.748;7.102;2023-04-01T05:52:34;1.55;;;0.63;;
32445;SDS011;18899;50.748;7.102;2023-04-01T05:54:59;1.70;;;0.80;;
32445;SDS011;18899;50.748;7.102;2023-04-01T05:57:25;2.10;;;0.80;;
32445;SDS011;18899;50.748;7.102;2023-04-01T05:59:51;1.42;;;0.60;;
32445;SDS011;18899;50.748;7.102;2023-04-01T06:02:17;2.28;;;0.65;;
32445;SDS011;18899;50.748;7.102;2023-04-01T06:04:43;0.85;;;0.40;;
32445;SDS011;18899;50.748;7.102;2023-04-01T06:07:16;1.15;;;0.60;;
32445;SDS011;18899;50.748;7.102;2023-04-01T06:09:44;0.85;;;0.40;;
32445;SDS011;18899;50.748;7.102;2023-04-01T06:18:19;0.68;;;0.30;;
32445;SDS011;18899;50.748;7.102;2023-04-01T06:26:48;0.30;;;0.30;;
32445;SDS011;18899;50.748;7.102;2023-04-01T06:34:54;0.95;;;0.40;;
32445;SDS011;18899;50.748;7.102;2023-04-01T06:43:46;0.98;;;0.32;;
32445;SDS011;18899;50.748;7.102;2023-04-01T06:52:05;1.10;;;0.30;;
32445;SDS011;18899;50.748;7.102;2023-04-01T06:57:47;1.48;;;0.43;;
32445;SDS011;18899;50.748;7.102;2023-04-01T07:00:24;2.47;;;0.50;;
32445;SDS011;18899;50.748;7.102;2023-04-01T07:03:10;1.63;;;0.40;;
32445;SDS011;18899;50.748;7.102;2023-04-01T07:05:59;7.03;;;0.45;;
32445;SDS011;18899;50.748;7.102;2023-04-01T07:08:31;0.52;;;0.40;;
32445;SDS011;18899;50.748;7.102;2023-04-01T07:11:02;0.73;;;0.50;;
32445;SDS011;18899;50.748;7.102;2023-04-01T07:13:54;0.52;;;0.47;;
32445;SDS011;18899;50.748;7.102;2023-04-01T07:16:32;1.65;;;0.38;;
32445;SDS011;18899;50.748;7.102;2023-04-01T07:22:04;0.77;;;0.50;;
32445;SDS011;18899;50.748;7.102;2023-04-01T07:24:42;0.55;;;0.40;;
32445;SDS011;18899;50.748;7.102;2023-04-01T07:29:36;0.75;;;0.50;;
32445;SDS011;18899;50.748;7.102;2023-04-01T07:32:19;2.17;;;0.57;;
32445;SDS011;18899;50.748;7.102;2023-04-01T07:35:07;1.33;;;0.60;;
32445;SDS011;18899;50.748;7.102;2023-04-01T07:38:08;1.05;;;0.40;;
32445;SDS011;18899;50.748;7.102;2023-04-01T07:43:43;1.10;;;0.70;;
32445;SDS011;18899;50.748;7.102;2023-04-01T07:52:08;0.88;;;0.60;;
32445;SDS011;18899;50.748;7.102;2023-04-01T07:57:27;3.13;;;0.75;;
32445;SDS011;18899;50.748;7.102;2023-04-01T08:05:34;0.80;;;0.40;;
32445;SDS011;18899;50.748;7.102;2023-04-01T08:08:09;0.52;;;0.40;;
32445;SDS011;18899;50.748;7.102;2023-04-01T08:10:57;0.50;;;0.40;;
32445;SDS011;18899;50.748;7.102;2023-04-01T08:16:52;1.17;;;0.50;;
32445;SDS011;18899;50.748;7.102;2023-04-01T08:19:56;0.80;;;0.40;;
32445;SDS011;18899;50.748;7.102;2023-04-01T08:22:32;0.90;;;0.40;;
32445;SDS011;18899;50.748;7.102;2023-04-01T08:25:04;0.98;;;0.50;;
32445;SDS011;18899;50.748;7.102;2023-04-01T08:30:20;0.73;;;0.50;;
32445;SDS011;18899;50.748;7.102;2023-04-01T08:32:50;2.38;;;0.50;;
32445;SDS011;18899;50.748;7.102;2023-04-01T08:35:30;0.88;;;0.50;;
32445;SDS011;18899;50.748;7.102;2023-04-01T08:38:10;0.50;;;0.30;;
32445;SDS011;18899;50.748;7.102;2023-04-01T08:43:16;0.35;;;0.32;;
32445;SDS011;18899;50.748;7.102;2023-04-01T08:46:28;0.38;;;0.30;;
32445;SDS011;18899;50.748;7.102;2023-04-01T08:49:16;0.35;;;0.32;;
32445;SDS011;18899;50.748;7.102;2023-04-01T08:57:36;0.40;;;0.30;;
32445;SDS011;18899;50.748;7.102;2023-04-01T09:00:43;0.70;;;0.30;;
32445;SDS011;18899;50.748;7.102;2023-04-01T09:03:37;2.40;;;0.40;;
32445;SDS011;18899;50.748;7.102;2023-04-01T09:09:36;0.75;;;0.38;;
32445;SDS011;18899;50.748;7.102;2023-04-01T09:14:53;0.98;;;0.50;;
32445;SDS011;18899;50.748;7.102;2023-04-01T09:23:22;0.80;;;0.40;;
32445;SDS011;18899;50.748;7.102;2023-04-01T09:29:01;1.10;;;0.50;;
32445;SDS011;18899;50.748;7.102;2023-04-01T09:37:36;0.40;;;0.30;;
32445;SDS011;18899;50.748;7.102;2023-04-01T09:46:02;0.75;;;0.40;;
32445;SDS011;18899;50.748;7.102;2023-04-01T09:51:21;1.85;;;0.60;;
32445;SDS011;18899;50.748;7.102;2023-04-01T09:56:44;0.50;;;0.40;;
32445;SDS011;18899;50.748;7.102;2023-04-01T10:02:34;1.00;;;0.50;;
32445;SDS011;18899;50.748;7.102;2023-04-01T10:13:23;0.55;;;0.30;;
32445;SDS011;18899;50.748;7.102;2023-04-01T10:22:17;0.40;;;0.30;;
32445;SDS011;18899;50.748;7.102;2023-04-01T10:27:30;0.30;;;0.30;;
32445;SDS011;18899;50.748;7.102;2023-04-01T10:44:04;1.08;;;0.50;;
32445;SDS011;18899;50.748;7.102;2023-04-01T10:52:46;1.25;;;0.50;;
32445;SDS011;18899;50.748;7.102;2023-04-01T10:55:48;0.50;;;0.40;;
32445;SDS011;18899;50.748;7.102;2023-04-01T11:07:26;0.73;;;0.35;;
32445;SDS011;18899;50.748;7.102;2023-04-01T11:12:52;0.45;;;0.30;;
32445;SDS011;18899;50.748;7.102;2023-04-01T11:15:58;0.57;;;0.30;;
32445;SDS011;18899;50.748;7.102;2023-04-01T11:18:56;0.52;;;0.30;;
32445;SDS011;18899;50.748;7.102;2023-04-01T11:21:53;0.28;;;0.28;;
32445;SDS011;18899;50.748;7.102;2023-04-01T11:24:27;0.75;;;0.30;;
32445;SDS011;18899;50.748;7.102;2023-04-01T11:27:20;1.10;;;0.50;;
32445;SDS011;18899;50.748;7.102;2023-04-01T11:32:48;0.30;;;0.30;;
32445;SDS011;18899;50.748;7.102;2023-04-01T11:38:31;2.58;;;0.40;;
32445;SDS011;18899;50.748;7.102;2023-04-01T11:41:26;0.77;;;0.35;;
32445;SDS011;18899;50.748;7.102;2023-04-01T11:52:15;0.80;;;0.40;;
32445;SDS011;18899;50.748;7.102;2023-04-01T11:57:51;0.98;;;0.45;;
32445;SDS011;18899;50.748;7.102;2023-04-01T12:00:34;1.75;;;0.60;;
32445;SDS011;18899;50.748;7.102;2023-04-01T12:06:14;0.40;;;0.30;;
32445;SDS011;18899;50.748;7.102;2023-04-01T12:11:25;0.68;;;0.40;;
32445;SDS011;18899;50.748;7.102;2023-04-01T12:14:16;0.60;;;0.47;;
32445;SDS011;18899;50.748;7.102;2023-04-01T12:19:29;0.70;;;0.40;;
32445;SDS011;18899;50.748;7.102;2023-04-01T12:25:02;1.65;;;0.50;;
32445;SDS011;18899;50.748;7.102;2023-04-01T12:30:38;1.67;;;0.40;;
32445;SDS011;18899;50.748;7.102;2023-04-01T12:41:53;0.75;;;0.50;;
32445;SDS011;18899;50.748;7.102;2023-04-01T12:55:14;0.30;;;0.30;;
32445;SDS011;18899;50.748;7.102;2023-04-01T13:09:24;0.38;;;0.30;;
32445;SDS011;18899;50.748;7.102;2023-04-01T13:17:58;0.43;;;0.32;;
32445;SDS011;18899;50.748;7.102;2023-04-01T13:20:54;0.40;;;0.32;;
32445;SDS011;18899;50.748;7.102;2023-04-01T13:26:04;0.50;;;0.38;;
32445;SDS011;18899;50.748;7.102;2023-04-01T13:28:43;0.50;;;0.40;;
32445;SDS011;18899;50.748;7.102;2023-04-01T13:31:36;0.77;;;0.40;;
32445;SDS011;18899;50.748;7.102;2023-04-01T13:36:53;0.70;;;0.50;;
32445;SDS011;18899;50.748;7.102;2023-04-01T13:39:44;0.88;;;0.40;;
32445;SDS011;18899;50.748;7.102;2023-04-01T13:45:34;0.75;;;0.50;;
32445;SDS011;18899;50.748;7.102;2023-04-01T13:50:53;0.50;;;0.40;;
32445;SDS011;18899;50.748;7.102;2023-04-01T13:56:34;1.13;;;0.50;;
32445;SDS011;18899;50.748;7.102;2023-04-01T13:59:10;0.40;;;0.40;;
32445;SDS011;18899;50.748;7.102;2023-04-01T14:04:46;0.70;;;0.50;;
32445;SDS011;18899;50.748;7.102;2023-04-01T14:29:56;0.80;;;0.55;;
32445;SDS011;18899;50.748;7.102;2023-04-01T14:46:31;0.60;;;0.50;;
32445;SDS011;18899;50.748;7.102;2023-04-01T14:51:49;1.58;;;0.50;;
32445;SDS011;18899;50.748;7.102;2023-04-01T14:54:21;1.35;;;0.60;;
32445;SDS011;18899;50.748;7.102;2023-04-01T14:57:13;0.77;;;0.45;;
32445;SDS011;18899;50.748;7.102;2023-04-01T14:59:47;0.60;;;0.47;;
32445;SDS011;18899;50.748;7.102;2023-04-01T15:11:04;0.60;;;0.40;;
32445;SDS011;18899;50.748;7.102;2023-04-01T15:21:43;0.70;;;0.40;;
32445;SDS011;18899;50.748;7.102;2023-04-01T15:27:16;0.45;;;0.40;;
32445;SDS011;18899;50.748;7.102;2023-04-01T15:32:45;0.80;;;0.52;;
32445;SDS011;18899;50.748;7.102;2023-04-01T15:35:23;0.88;;;0.50;;
32445;SDS011;18899;50.748;7.102;2023-04-01T15:38:01;2.25;;;0.57;;
32445;SDS011;18899;50.748;7.102;2023-04-01T15:40:30;1.55;;;0.75;;
32445;SDS011;18899;50.748;7.102;2023-04-01T15:48:57;1.00;;;0.77;;
32445;SDS011;18899;50.748;7.102;2023-04-01T16:00:48;0.77;;;0.50;;
32445;SDS011;18899;50.748;7.102;2023-04-01T16:03:44;1.20;;;0.50;;
32445;SDS011;18899;50.748;7.102;2023-04-01T16:14:42;0.70;;;0.50;;
32445;SDS011;18899;50.748;7.102;2023-04-01T16:17:29;0.43;;;0.40;;
32445;SDS011;18899;50.748;7.102;2023-04-01T16:23:13;0.60;;;0.50;;
32445;SDS011;18899;50.748;7.102;2023-04-01T16:26:01;1.70;;;0.63;;
32445;SDS011;18899;50.748;7.102;2023-04-01T16:28:42;2.88;;;0.60;;
32445;SDS011;18899;50.748;7.102;2023-04-01T16:31:15;1.20;;;0.75;;
32445;SDS011;18899;50.748;7.102;2023-04-01T16:36:51;0.70;;;0.50;;
32445;SDS011;18899;50.748;7.102;2023-04-01T16:45:45;0.60;;;0.50;;
32445;SDS011;18899;50.748;7.102;2023-04-01T16:48:22;1.42;;;0.65;;
32445;SDS011;18899;50.748;7.102;2023-04-01T16:51:15;0.93;;;0.60;;
32445;SDS011;18899;50.748;7.102;2023-04-01T16:53:43;0.60;;;0.50;;
32445;SDS011;18899;50.748;7.102;2023-04-01T16:56:14;0.60;;;0.60;;
32445;SDS011;18899;50.748;7.102;2023-04-01T16:59:07;0.82;;;0.60;;
32445;SDS011;18899;50.748;7.102;2023-04-01T17:01:52;1.55;;;0.60;;
32445;SDS011;18899;50.748;7.102;2023-04-01T17:07:31;0.95;;;0.60;;
32445;SDS011;18899;50.748;7.102;2023-04-01T17:16:14;3.38;;;0.85;;
32445;SDS011;18899;50.748;7.102;2023-04-01T17:19:01;1.33;;;0.57;;
32445;SDS011;18899;50.748;7.102;2023-04-01T17:21:57;1.92;;;0.90;;
32445;SDS011;18899;50.748;7.102;2023-04-01T17:24:46;1.17;;;0.80;;
32445;SDS011;18899;50.748;7.102;2023-04-01T17:30:18;1.60;;;0.80;;
32445;SDS011;18899;50.748;7.102;2023-04-01T17:35:53;1.20;;;0.82;;
32445;SDS011;18899;50.748;7.102;2023-04-01T17:50:02;1.42;;;0.93;;
32445;SDS011;18899;50.748;7.102;2023-04-01T17:52:44;1.77;;;0.82;;
32445;SDS011;18899;50.748;7.102;2023-04-01T18:03:37;2.15;;;0.80;;
32445;SDS011;18899;50.748;7.102;2023-04-01T18:08:56;4.80;;;1.10;;
32445;SDS011;18899;50.748;7.102;2023-04-01T18:14:37;2.85;;;1.20;;
32445;SDS011;18899;50.748;7.102;2023-04-01T18:20:22;1.75;;;1.20;;
32445;SDS011;18899;50.748;7.102;2023-04-01T18:25:43;1.10;;;0.80;;
32445;SDS011;18899;50.748;7.102;2023-04-01T18:28:30;1.73;;;1.10;;
32445;SDS011;18899;50.748;7.102;2023-04-01T18:36:47;2.28;;;1.10;;
32445;SDS011;18899;50.748;7.102;2023-04-01T18:39:35;1.80;;;1.20;;
32445;SDS011;18899;50.748;7.102;2023-04-01T18:50:47;1.35;;;1.08;;
32445;SDS011;18899;50.748;7.102;2023-04-01T18:56:03;3.55;;;1.50;;
32445;SDS011;18899;50.748;7.102;2023-04-01T18:58:35;1.73;;;1.17;;
32445;SDS011;18899;50.748;7.102;2023-04-01T19:01:11;1.90;;;1.17;;
32445;SDS011;18899;50.748;7.102;2023-04-01T19:03:53;5.47;;;1.40;;
32445;SDS011;18899;50.748;7.102;2023-04-01T19:06:48;1.80;;;1.33;;
32445;SDS011;18899;50.748;7.102;2023-04-01T19:12:48;3.40;;;2.83;;
32445;SDS011;18899;50.748;7.102;2023-04-01T19:17:44;5.32;;;1.48;;
32445;SDS011;18899;50.748;7.102;2023-04-01T19:20:34;2.67;;;1.88;;
32445;SDS011;18899;50.748;7.102;2023-04-01T19:23:14;2.80;;;1.73;;
32445;SDS011;18899;50.748;7.102;2023-04-01T19:29:16;2.08;;;1.40;;
32445;SDS011;18899;50.748;7.102;2023-04-01T19:32:01;1.85;;;1.55;;
32445;SDS011;18899;50.748;7.102;2023-04-01T19:39:48;2.92;;;1.80;;
32445;SDS011;18899;50.748;7.102;2023-04-01T19:45:11;3.45;;;1.95;;
32445;SDS011;18899;50.748;7.102;2023-04-01T19:56:00;2.03;;;1.63;;
32445;SDS011;18899;50.748;7.102;2023-04-01T19:58:34;2.30;;;1.70;;
32445;SDS011;18899;50.748;7.102;2023-04-01T20:01:08;1.73;;;1.53;;
32445;SDS011;18899;50.748;7.102;2023-04-01T20:03:56;3.47;;;1.70;;
32445;SDS011;18899;50.748;7.102;2023-04-01T20:06:37;2.60;;;1.98;;
32445;SDS011;18899;50.748;7.102;2023-04-01T20:15:21;2.83;;;2.30;;
32445;SDS011;18899;50.748;7.102;2023-04-01T20:17:47;3.80;;;2.40;;
32445;SDS011;18899;50.748;7.102;2023-04-01T20:20:19;2.92;;;1.90;;
32445;SDS011;18899;50.748;7.102;2023-04-01T20:25:49;4.35;;;1.90;;
32445;SDS011;18899;50.748;7.102;2023-04-01T20:28:25;3.17;;;2.63;;
32445;SDS011;18899;50.748;7.102;2023-04-01T20:31:12;2.35;;;1.55;;
32445;SDS011;18899;50.748;7.102;2023-04-01T20:47:45;1.75;;;1.10;;
32445;SDS011;18899;50.748;7.102;2023-04-01T20:50:56;2.00;;;1.30;;
32445;SDS011;18899;50.748;7.102;2023-04-01T20:53:35;2.33;;;1.42;;
32445;SDS011;18899;50.748;7.102;2023-04-01T21:01:45;2.58;;;1.60;;
32445;SDS011;18899;50.748;7.102;2023-04-01T21:14:59;3.53;;;1.67;;
32445;SDS011;18899;50.748;7.102;2023-04-01T21:17:58;2.13;;;1.40;;
32445;SDS011;18899;50.748;7.102;2023-04-01T21:32:46;2.92;;;1.02;;
32445;SDS011;18899;50.748;7.102;2023-04-01T21:40:42;1.33;;;0.93;;
32445;SDS011;18899;50.748;7.102;2023-04-01T21:43:51;2.05;;;1.20;;
32445;SDS011;18899;50.748;7.102;2023-04-01T21:46:37;1.92;;;1.10;;
32445;SDS011;18899;50.748;7.102;2023-04-01T21:54:38;2.17;;;1.10;;
32445;SDS011;18899;50.748;7.102;2023-04-01T22:14:21;2.22;;;1.33;;
32445;SDS011;18899;50.748;7.102;2023-04-01T22:16:59;2.30;;;1.48;;
32445;SDS011;18899;50.748;7.102;2023-04-01T22:22:22;3.40;;;1.40;;
32445;SDS011;18899;50.748;7.102;2023-04-01T22:25:07;2.83;;;1.55;;
32445;SDS011;18899;50.748;7.102;2023-04-01T22:27:46;3.33;;;1.33;;
32445;SDS011;18899;50.748;7.102;2023-04-01T22:32:53;2.67;;;1.27;;
32445;SDS011;18899;50.748;7.102;2023-04-01T22:35:46;1.95;;;1.30;;
32445;SDS011;18899;50.748;7.102;2023-04-01T22:41:05;2.03;;;1.40;;
32445;SDS011;18899;50.748;7.102;2023-04-01T22:43:42;3.22;;;1.38;;
32445;SDS011;18899;50.748;7.102;2023-04-01T22:48:45;3.28;;;1.67;;
32445;SDS011;18899;50.748;7.102;2023-04-01T22:51:17;1.83;;;1.20;;
32445;SDS011;18899;50.748;7.102;2023-04-01T22:56:33;3.75;;;1.13;;
32445;SDS011;18899;50.748;7.102;2023-04-01T22:59:10;5.32;;;1.20;;
32445;SDS011;18899;50.748;7.102;2023-04-01T23:01:44;6.90;;;1.50;;
32445;SDS011;18899;50.748;7.102;2023-04-01T23:04:22;3.25;;;1.70;;
32445;SDS011;18899;50.748;7.102;2023-04-01T23:06:56;2.72;;;1.60;;
32445;SDS011;18899;50.748;7.102;2023-04-01T23:09:26;5.55;;;1.25;;
32445;SDS011;18899;50.748;7.102;2023-04-01T23:16:47;1.77;;;0.90;;
32445;SDS011;18899;50.748;7.102;2023-04-01T23:19:45;1.60;;;0.82;;
32445;SDS011;18899;50.748;7.102;2023-04-01T23:22:34;3.45;;;0.82;;
32445;SDS011;18899;50.748;7.102;2023-04-01T23:25:23;1.27;;;1.00;;
32445;SDS011;18899;50.748;7.102;2023-04-01T23:33:50;0.98;;;0.80;;
32445;SDS011;18899;50.748;7.102;2023-04-01T23:36:10;6.82;;;1.20;;
32445;SDS011;18899;50.748;7.102;2023-04-01T23:38:39;1.50;;;0.93;;
32445;SDS011;18899;50.748;7.102;2023-04-01T23:41:07;1.73;;;0.95;;
32445;SDS011;18899;50.748;7.102;2023-04-01T23:43:42;1.85;;;1.15;;
32445;SDS011;18899;50.748;7.102;2023-04-01T23:46:10;2.42;;;1.10;;
32445;SDS011;18899;50.748;7.102;2023-04-01T23:48:41;1.38;;;0.98;;
32445;SDS011;18899;50.748;7.102;2023-04-01T23:51:17;1.65;;;1.05;;
32445;SDS011;18899;50.748;7.102;2023-04-01T23:54:00;2.40;;;0.80;;
32445;SDS011;18899;50.748;7.102;2023-04-01T23:56:37;2.35;;;0.95;;
32445;SDS011;18899;50.748;7.102;2023-04-01T23:59:09;2.30;;;0.90;;
